createdAt,value
2023-04-02T02:45:29.638Z,82.64
2023-04-02T02:55:09.583Z,86.92
2023-04-02T02:58:11.188Z,77.76
2023-04-02T03:00:49.821Z,79.08
2023-04-02T03:03:24.164Z,74.13
2023-04-02T03:06:10.639Z,76.56
2023-04-02T03:09:05.877Z,77.13
2023-04-02T03:11:44.634Z,82.47
2023-04-02T03:14:24.639Z,80.59
2023-04-02T03:17:05.166Z,78.70
2023-04-02T03:19:47.663Z,81.82
2023-04-02T03:22:41.246Z,78.84
2023-04-02T03:25:47.214Z,88.89
2023-04-02T03:28:22.328Z,94.96
2023-04-02T03:31:24.175Z,84.44
2023-04-02T03:33:58.431Z,85.84
2023-04-02T03:36:36.608Z,97.15
2023-04-02T03:39:11.972Z,96.37
2023-04-02T03:41:52.821Z,95.60
2023-04-02T03:44:39.691Z,95.75
2023-04-02T03:47:20.046Z,94.93
2023-04-02T03:50:01.781Z,89.28
2023-04-02T03:52:32.492Z,89.05
2023-04-02T03:55:11.099Z,90.79
2023-04-02T03:57:45.255Z,90.44
2023-04-02T04:00:31.000Z,88.90
2023-04-02T04:03:17.358Z,93.57
2023-04-02T04:06:09.163Z,89.75
2023-04-02T04:08:53.021Z,92.45
2023-04-02T04:11:32.748Z,84.98
2023-04-02T04:14:15.267Z,100.00
2023-04-02T04:17:05.838Z,81.42
2023-04-02T04:20:09.827Z,91.19
2023-04-02T04:22:39.064Z,98.43
2023-04-02T04:25:24.095Z,82.25
2023-04-02T04:28:14.014Z,100.00
2023-04-02T04:31:00.958Z,98.20
2023-04-02T04:33:40.900Z,90.87
2023-04-02T04:36:36.278Z,99.86
2023-04-02T04:39:19.197Z,98.52
2023-04-02T04:41:53.248Z,96.46
2023-04-02T04:44:51.370Z,91.08
2023-04-02T04:47:43.344Z,96.37
2023-04-02T04:50:33.174Z,100.00
2023-04-02T04:53:15.685Z,98.30
2023-04-02T04:55:49.058Z,100.00
2023-04-02T04:58:29.060Z,93.25
2023-04-02T05:01:29.477Z,100.00
2023-04-02T05:04:21.321Z,91.00
2023-04-02T05:06:56.117Z,95.48
2023-04-02T05:09:37.523Z,94.58
2023-04-02T05:12:25.999Z,96.38
2023-04-02T05:15:04.253Z,95.77
2023-04-02T05:17:39.553Z,94.22
2023-04-02T05:20:36.092Z,88.99
2023-04-02T05:23:16.367Z,100.00
2023-04-02T05:26:10.897Z,87.38
2023-04-02T05:28:44.831Z,89.53
2023-04-02T05:31:20.904Z,81.57
2023-04-02T05:33:51.326Z,86.16
2023-04-02T05:36:26.698Z,86.25
2023-04-02T05:39:00.212Z,89.38
2023-04-02T05:41:44.189Z,89.36
2023-04-02T05:44:44.035Z,69.21
2023-04-02T05:47:28.622Z,83.21
2023-04-02T05:50:17.913Z,82.46
2023-04-02T05:53:04.852Z,81.61
2023-04-02T05:55:43.761Z,79.34
2023-04-02T05:58:35.466Z,70.08
2023-04-02T06:01:22.246Z,85.66
2023-04-02T06:04:05.115Z,80.52
2023-04-02T06:06:46.397Z,90.65
2023-04-02T06:09:32.870Z,90.09
2023-04-02T06:12:52.788Z,92.42
2023-04-02T06:15:25.299Z,96.94
2023-04-02T06:18:21.752Z,88.70
2023-04-02T06:20:54.151Z,86.01
2023-04-02T06:23:33.840Z,82.89
2023-04-02T06:26:06.586Z,80.20
2023-04-02T06:28:55.084Z,73.12
2023-04-02T06:32:10.202Z,76.05
2023-04-02T06:34:45.236Z,79.44
2023-04-02T06:37:30.368Z,82.46
2023-04-02T06:40:36.720Z,87.72
2023-04-02T06:43:41.431Z,93.00
2023-04-02T06:46:52.432Z,100.00
2023-04-02T06:49:30.096Z,88.88
2023-04-02T06:52:06.304Z,97.20
2023-04-02T06:54:36.236Z,100.00
2023-04-02T06:57:12.034Z,100.00
2023-04-02T06:59:44.337Z,92.64
2023-04-02T07:02:36.826Z,97.07
2023-04-02T07:05:10.941Z,100.00
2023-04-02T07:07:44.972Z,100.00
2023-04-02T07:10:15.114Z,100.00
2023-04-02T07:12:44.577Z,100.00
2023-04-02T07:15:18.607Z,100.00
2023-04-02T07:17:48.483Z,100.00
2023-04-02T07:20:34.001Z,100.00
2023-04-02T07:23:07.154Z,100.00
2023-04-02T07:25:36.477Z,100.00
2023-04-02T07:28:07.234Z,100.00
2023-04-02T07:30:37.392Z,100.00
2023-04-02T07:33:06.866Z,100.00
2023-04-02T07:35:36.979Z,100.00
2023-04-02T07:38:06.462Z,100.00
2023-04-02T07:40:35.916Z,100.00
2023-04-02T07:43:05.737Z,100.00
2023-04-02T07:45:35.020Z,100.00
2023-04-02T07:48:12.672Z,100.00
2023-04-02T07:50:41.764Z,100.00
2023-04-02T07:53:28.856Z,100.00
2023-04-02T07:56:00.515Z,100.00
2023-04-02T07:58:33.512Z,100.00
2023-04-02T08:01:04.555Z,100.00
2023-04-02T08:03:33.758Z,100.00
2023-04-02T08:06:02.758Z,100.00
2023-04-02T08:08:31.947Z,100.00
2023-04-02T08:11:01.513Z,100.00
2023-04-02T08:13:31.527Z,100.00
2023-04-02T08:16:02.550Z,100.00
2023-04-02T08:18:31.923Z,100.00
2023-04-02T08:21:02.354Z,100.00
2023-04-02T08:23:32.799Z,100.00
2023-04-02T08:26:02.332Z,100.00
2023-04-02T08:28:32.172Z,100.00
2023-04-02T08:31:02.240Z,100.00
2023-04-02T08:33:32.969Z,100.00
2023-04-02T08:36:03.973Z,98.37
2023-04-02T08:38:33.188Z,95.35
2023-04-02T08:41:06.220Z,93.63
2023-04-02T08:43:54.871Z,93.21
2023-04-02T08:46:52.258Z,97.75
2023-04-02T08:49:53.352Z,92.61
2023-04-02T08:52:32.273Z,98.57
2023-04-02T08:55:03.575Z,100.00
2023-04-02T08:58:19.751Z,100.00
2023-04-02T09:00:52.674Z,95.67
2023-04-02T09:03:30.799Z,93.74
2023-04-02T09:06:04.150Z,97.47
2023-04-02T09:08:34.616Z,96.95
2023-04-02T09:11:07.284Z,95.92
2023-04-02T09:13:44.946Z,100.00
2023-04-02T09:16:24.075Z,98.81
2023-04-02T09:18:55.106Z,96.56
2023-04-02T09:21:46.702Z,100.00
2023-04-02T09:24:15.995Z,100.00
2023-04-02T09:26:44.629Z,100.00
2023-04-02T09:29:15.218Z,100.00
2023-04-02T09:32:00.121Z,100.00
2023-04-02T09:34:31.923Z,100.00
2023-04-02T09:37:26.803Z,100.00
2023-04-02T09:40:17.623Z,100.00
2023-04-02T09:42:48.324Z,100.00
2023-04-02T09:45:25.811Z,100.00
2023-04-02T09:47:57.264Z,100.00
2023-04-02T09:50:33.248Z,100.00
2023-04-02T09:53:42.422Z,100.00
2023-04-02T09:56:24.050Z,100.00
2023-04-02T09:59:16.842Z,100.00
2023-04-02T10:01:52.653Z,100.00
2023-04-02T10:04:45.829Z,100.00
2023-04-02T10:07:39.178Z,100.00
2023-04-02T10:10:29.527Z,100.00
2023-04-02T10:13:49.811Z,100.00
2023-04-02T10:16:21.009Z,100.00
2023-04-02T10:19:03.678Z,100.00
2023-04-02T10:21:45.615Z,100.00
2023-04-02T10:24:18.602Z,100.00
2023-04-02T10:27:03.996Z,100.00
2023-04-02T10:30:15.594Z,100.00
2023-04-02T10:32:53.827Z,100.00
2023-04-02T10:35:35.392Z,100.00
2023-04-02T10:38:11.513Z,100.00
2023-04-02T10:40:46.711Z,100.00
2023-04-02T10:43:41.744Z,100.00
2023-04-02T10:46:45.647Z,100.00
2023-04-02T10:49:43.043Z,100.00
2023-04-02T10:52:17.874Z,100.00
2023-04-02T10:55:15.929Z,100.00
2023-04-02T10:57:47.262Z,100.00
2023-04-02T11:00:36.093Z,100.00
2023-04-02T11:03:15.057Z,100.00
2023-04-02T11:05:47.768Z,100.00
2023-04-02T11:08:42.236Z,100.00
2023-04-02T11:11:20.339Z,100.00
2023-04-02T11:13:52.801Z,100.00
2023-04-02T11:16:23.039Z,100.00
2023-04-02T11:19:17.405Z,100.00
2023-04-02T11:21:58.575Z,100.00
2023-04-02T11:24:39.618Z,100.00
2023-04-02T11:27:15.802Z,100.00
2023-04-02T11:30:01.091Z,100.00
2023-04-02T11:32:50.718Z,100.00
2023-04-02T11:35:33.259Z,100.00
2023-04-02T11:38:12.399Z,100.00
2023-04-02T11:40:59.615Z,100.00
2023-04-02T11:43:35.283Z,100.00
2023-04-02T11:46:06.006Z,100.00
2023-04-02T11:48:37.756Z,100.00
2023-04-02T11:51:23.379Z,100.00
2023-04-02T11:53:55.024Z,100.00
2023-04-02T11:56:45.656Z,100.00
2023-04-02T11:59:39.470Z,100.00
2023-04-02T12:02:22.932Z,100.00
2023-04-02T12:05:10.125Z,100.00
2023-04-02T12:07:58.096Z,100.00
2023-04-02T12:10:35.662Z,100.00
2023-04-02T12:13:04.990Z,100.00
2023-04-02T12:15:42.796Z,100.00
2023-04-02T12:18:18.066Z,100.00
2023-04-02T12:20:54.386Z,100.00
2023-04-02T12:23:41.733Z,100.00
2023-04-02T12:26:31.120Z,100.00
2023-04-02T12:29:28.311Z,100.00
2023-04-02T12:31:59.656Z,100.00
2023-04-02T12:34:31.581Z,100.00
2023-04-02T12:37:06.922Z,100.00
2023-04-02T12:39:37.585Z,100.00
2023-04-02T12:42:08.003Z,100.00
2023-04-02T12:44:37.292Z,100.00
2023-04-02T12:47:07.497Z,100.00
2023-04-02T12:49:39.578Z,100.00
2023-04-02T12:52:15.972Z,100.00
2023-04-02T12:55:00.336Z,100.00
2023-04-02T12:57:32.746Z,100.00
2023-04-02T13:00:29.114Z,100.00
2023-04-02T13:03:30.350Z,100.00
